createdAt,value
2019-05-29T00:02:18.295Z,62.27
2019-05-29T00:04:48.382Z,62.28
2019-05-29T00:07:18.540Z,62.31
2019-05-29T00:09:48.584Z,62.48
2019-05-29T00:12:21.192Z,62.60
2019-05-29T00:14:53.586Z,62.67
2019-05-29T00:17:23.582Z,62.69
2019-05-29T00:19:53.609Z,62.78
2019-05-29T00:22:23.728Z,62.78
2019-05-29T00:24:54.849Z,62.80
2019-05-29T00:27:24.936Z,63.00
2019-05-29T00:29:54.979Z,63.11
2019-05-29T00:32:25.218Z,63.19
2019-05-29T00:34:55.301Z,63.25
2019-05-29T00:37:27.191Z,63.28
2019-05-29T00:39:57.299Z,63.31
2019-05-29T00:42:27.422Z,63.43
2019-05-29T00:44:59.165Z,63.50
2019-05-29T00:47:29.175Z,63.60
2019-05-29T00:49:59.183Z,63.54
2019-05-29T00:52:32.820Z,63.46
2019-05-29T00:55:03.004Z,63.44
2019-05-29T00:57:33.034Z,63.41
2019-05-29T01:00:03.415Z,63.32
2019-05-29T01:02:34.511Z,63.34
2019-05-29T01:05:05.875Z,63.47
2019-05-29T01:07:37.948Z,63.57
2019-05-29T01:10:08.537Z,63.57
2019-05-29T01:12:38.615Z,63.57
2019-05-29T01:15:09.070Z,63.57
2019-05-29T01:17:39.209Z,63.59
2019-05-29T01:20:09.713Z,63.55
2019-05-29T01:22:39.808Z,63.60
2019-05-29T01:25:10.565Z,63.81
2019-05-29T01:27:42.129Z,63.82
2019-05-29T01:30:13.162Z,63.98
2019-05-29T01:32:43.432Z,64.41
2019-05-29T01:35:13.835Z,64.29
2019-05-29T01:37:44.302Z,64.28
2019-05-29T01:40:21.115Z,64.27
2019-05-29T01:42:49.912Z,64.17
2019-05-29T01:45:19.453Z,64.12
2019-05-29T01:47:50.609Z,64.07
2019-05-29T01:50:27.950Z,64.29
2019-05-29T01:52:58.383Z,64.41
2019-05-29T01:55:28.421Z,64.47
2019-05-29T01:57:58.831Z,64.41
2019-05-29T02:00:29.282Z,64.61
2019-05-29T02:02:59.789Z,64.49
2019-05-29T02:05:29.898Z,64.31
2019-05-29T02:08:00.018Z,64.24
2019-05-29T02:10:30.136Z,64.22
2019-05-29T02:13:00.176Z,64.44
2019-05-29T02:15:33.861Z,64.52
2019-05-29T02:18:02.406Z,64.63
2019-05-29T02:20:34.020Z,64.78
2019-05-29T02:23:04.364Z,65.05
2019-05-29T02:25:35.380Z,65.00
2019-05-29T02:28:05.607Z,64.90
2019-05-29T02:30:35.616Z,64.80
2019-05-29T02:33:06.202Z,64.69
2019-05-29T02:35:43.134Z,64.64
2019-05-29T02:38:13.131Z,64.60
2019-05-29T02:40:43.513Z,64.60
2019-05-29T02:43:13.610Z,64.82
2019-05-29T02:45:53.492Z,65.00
2019-05-29T02:48:17.894Z,65.11
2019-05-29T02:50:47.963Z,65.07
2019-05-29T02:53:17.999Z,65.13
2019-05-29T02:55:48.058Z,65.22
2019-05-29T02:58:27.744Z,65.34
2019-05-29T03:00:58.601Z,65.36
2019-05-29T03:03:31.214Z,65.42
2019-05-29T03:06:02.523Z,65.85
2019-05-29T03:08:34.369Z,65.65
2019-05-29T03:11:05.189Z,65.60
2019-05-29T03:13:35.284Z,65.70
2019-05-29T03:16:11.202Z,65.65
2019-05-29T03:18:37.292Z,65.72
2019-05-29T03:21:07.906Z,65.76
2019-05-29T03:23:38.016Z,65.74
2019-05-29T03:26:08.145Z,65.47
2019-05-29T03:28:38.516Z,65.44
2019-05-29T03:31:08.665Z,65.28
2019-05-29T03:33:47.821Z,65.14
2019-05-29T03:36:14.950Z,64.84
2019-05-29T03:38:45.033Z,64.74
2019-05-29T03:41:15.217Z,64.59
2019-05-29T03:43:45.651Z,64.51
2019-05-29T03:46:30.004Z,64.55
2019-05-29T03:48:48.017Z,64.76
2019-05-29T03:51:18.234Z,64.84
2019-05-29T03:53:48.307Z,65.01
2019-05-29T03:56:18.738Z,65.06
2019-05-29T03:58:49.954Z,64.86
2019-05-29T04:01:26.689Z,64.76
2019-05-29T04:04:09.417Z,64.84
2019-05-29T04:06:39.668Z,64.85
2019-05-29T04:09:10.542Z,64.81
2019-05-29T04:11:40.695Z,64.70
2019-05-29T04:14:10.981Z,64.63
2019-05-29T04:17:00.528Z,64.58
2019-05-29T04:19:20.132Z,64.29
2019-05-29T04:21:51.346Z,63.81
2019-05-29T04:24:23.014Z,63.27
2019-05-29T04:26:55.521Z,63.03
2019-05-29T04:29:25.727Z,62.86
2019-05-29T04:31:55.834Z,62.77
2019-05-29T04:34:26.955Z,62.72
2019-05-29T04:36:57.158Z,62.53
2019-05-29T04:39:28.389Z,62.38
2019-05-29T04:41:59.045Z,62.41
2019-05-29T04:44:30.701Z,62.09
2019-05-29T04:47:11.240Z,62.05
2019-05-29T04:49:35.724Z,61.93
2019-05-29T04:52:05.473Z,62.04
2019-05-29T04:54:37.694Z,61.63
2019-05-29T04:57:07.965Z,61.48
2019-05-29T04:59:39.267Z,61.49
2019-05-29T05:02:18.819Z,61.13
2019-05-29T05:04:48.893Z,60.59
2019-05-29T05:07:19.006Z,60.77
2019-05-29T05:10:13.475Z,60.23
2019-05-29T05:12:54.705Z,60.29
2019-05-29T05:15:33.660Z,59.85
2019-05-29T05:18:03.932Z,59.48
2019-05-29T05:20:34.482Z,58.11
2019-05-29T05:23:10.177Z,58.03
2019-05-29T05:25:41.025Z,57.31
2019-05-29T05:28:11.200Z,56.35
2019-05-29T05:30:42.446Z,55.17
2019-05-29T05:33:13.327Z,55.35
2019-05-29T05:35:43.405Z,55.15
2019-05-29T05:38:13.595Z,53.83
2019-05-29T05:40:50.742Z,53.75
2019-05-29T05:43:24.255Z,53.26
2019-05-29T05:45:52.795Z,52.68
2019-05-29T05:48:26.790Z,53.52
2019-05-29T05:50:57.828Z,53.58
2019-05-29T05:53:27.944Z,53.73
2019-05-29T05:55:58.144Z,53.68
2019-05-29T05:58:28.510Z,53.15
2019-05-29T06:00:58.909Z,51.42
2019-05-29T06:03:30.258Z,50.69
2019-05-29T06:06:02.745Z,50.85
2019-05-29T06:08:34.030Z,50.22
2019-05-29T06:11:04.715Z,49.29
2019-05-29T06:13:36.323Z,49.14
2019-05-29T06:16:08.605Z,48.75
2019-05-29T06:18:38.833Z,49.19
2019-05-29T06:21:08.976Z,49.50
2019-05-29T06:23:39.414Z,48.19
2019-05-29T06:26:10.030Z,49.34
2019-05-29T06:28:41.191Z,48.74
2019-05-29T06:31:11.407Z,48.63
2019-05-29T06:33:41.592Z,48.35
2019-05-29T06:36:14.119Z,49.22
2019-05-29T06:38:44.577Z,48.43
2019-05-29T06:41:14.812Z,47.74
2019-05-29T06:43:45.336Z,46.94
2019-05-29T06:46:15.360Z,47.37
2019-05-29T06:48:58.925Z,47.32
2019-05-29T06:51:24.524Z,47.29
2019-05-29T06:53:55.158Z,47.56
2019-05-29T06:56:25.265Z,47.26
2019-05-29T06:58:55.414Z,47.49
2019-05-29T07:01:25.566Z,45.94
2019-05-29T07:04:10.490Z,45.37
2019-05-29T07:06:27.497Z,45.48
2019-05-29T07:08:58.301Z,45.04
2019-05-29T07:11:28.592Z,46.07
2019-05-29T07:13:58.734Z,46.25
2019-05-29T07:16:43.706Z,46.43
2019-05-29T07:19:25.318Z,46.61
2019-05-29T07:21:33.589Z,45.92
2019-05-29T07:24:03.877Z,46.77
2019-05-29T07:26:33.989Z,45.83
2019-05-29T07:29:08.376Z,45.83
2019-05-29T07:31:36.910Z,45.42
2019-05-29T07:34:08.304Z,46.20
2019-05-29T07:36:39.781Z,46.02
2019-05-29T07:39:10.100Z,45.88
2019-05-29T07:41:41.567Z,45.99
2019-05-29T07:44:14.029Z,45.41
2019-05-29T07:46:45.292Z,45.94
2019-05-29T07:49:15.952Z,45.11
2019-05-29T07:51:48.639Z,43.13
2019-05-29T07:54:19.616Z,43.13
2019-05-29T07:56:49.722Z,41.86
2019-05-29T07:59:19.932Z,42.53
2019-05-29T08:01:50.252Z,43.06
2019-05-29T08:04:20.869Z,43.06
2019-05-29T08:06:54.553Z,44.54
2019-05-29T08:09:24.284Z,44.54
2019-05-29T08:11:54.505Z,44.69
2019-05-29T08:14:25.212Z,45.34
2019-05-29T08:16:55.394Z,45.98
2019-05-29T08:19:25.706Z,45.98
2019-05-29T08:21:56.004Z,45.90
2019-05-29T08:24:26.096Z,43.69
2019-05-29T08:26:57.086Z,41.41
2019-05-29T08:29:27.277Z,41.41
2019-05-29T08:31:57.907Z,40.70
2019-05-29T08:34:28.257Z,40.29
2019-05-29T08:37:06.681Z,40.54
2019-05-29T08:39:36.531Z,40.99
2019-05-29T08:42:21.938Z,40.36
2019-05-29T08:44:34.723Z,40.23
2019-05-29T08:47:10.429Z,40.27
2019-05-29T08:49:37.256Z,40.20
2019-05-29T08:52:11.626Z,40.50
2019-05-29T08:54:39.371Z,40.91
2019-05-29T08:57:10.137Z,41.87
2019-05-29T08:59:40.353Z,41.87
2019-05-29T09:02:10.476Z,42.04
2019-05-29T09:04:40.615Z,42.35
2019-05-29T09:07:10.768Z,42.35
2019-05-29T09:09:41.095Z,42.37
2019-05-29T09:12:11.523Z,42.38
2019-05-29T09:14:41.598Z,42.05
2019-05-29T09:17:12.031Z,41.81
2019-05-29T09:19:42.120Z,41.81
2019-05-29T09:22:13.321Z,41.46
2019-05-29T09:24:44.050Z,39.85
2019-05-29T09:27:15.403Z,39.84
2019-05-29T09:29:48.110Z,38.83
2019-05-29T09:32:24.796Z,38.03
2019-05-29T09:34:50.031Z,38.05
2019-05-29T09:37:20.557Z,37.86
2019-05-29T09:39:51.187Z,38.80
2019-05-29T09:42:22.440Z,39.37
2019-05-29T09:44:53.177Z,38.26
2019-05-29T09:47:24.266Z,36.81
2019-05-29T09:49:54.584Z,37.29
2019-05-29T09:52:24.933Z,38.25
2019-05-29T09:54:56.183Z,39.93
2019-05-29T09:57:28.560Z,39.93
2019-05-29T10:00:00.296Z,40.43
2019-05-29T10:02:30.558Z,39.55
2019-05-29T10:05:04.143Z,38.57
2019-05-29T10:07:34.210Z,38.58
2019-05-29T10:10:05.309Z,38.25
2019-05-29T10:12:35.394Z,38.18
2019-05-29T10:15:06.992Z,38.94
2019-05-29T10:17:37.117Z,37.51
2019-05-29T10:20:08.032Z,34.60
2019-05-29T10:22:38.211Z,31.86
2019-05-29T10:25:08.873Z,31.99
2019-05-29T10:27:39.318Z,33.68
2019-05-29T10:30:10.181Z,34.09
2019-05-29T10:32:42.432Z,34.53
2019-05-29T10:35:13.359Z,35.58
2019-05-29T10:37:44.524Z,37.26
2019-05-29T10:40:16.270Z,37.72
2019-05-29T10:42:51.215Z,38.33
2019-05-29T10:45:23.373Z,38.73
2019-05-29T10:47:54.074Z,37.41
2019-05-29T10:50:32.569Z,33.57
2019-05-29T10:53:02.673Z,31.62
2019-05-29T10:55:33.278Z,30.16
2019-05-29T10:58:03.398Z,28.29
2019-05-29T11:00:38.316Z,27.36
2019-05-29T11:03:06.615Z,27.47
2019-05-29T11:05:37.141Z,25.50
2019-05-29T11:08:07.386Z,26.18
2019-05-29T11:10:37.563Z,27.66
2019-05-29T11:13:07.940Z,29.18
2019-05-29T11:15:38.463Z,30.36
2019-05-29T11:18:08.582Z,31.61
2019-05-29T11:20:39.306Z,32.65
2019-05-29T11:23:10.267Z,33.10
2019-05-29T11:25:40.660Z,32.92
2019-05-29T11:28:10.963Z,31.09
2019-05-29T11:30:41.382Z,30.00
2019-05-29T11:33:11.583Z,29.35
2019-05-29T11:35:57.288Z,28.79
2019-05-29T11:38:13.856Z,28.09
2019-05-29T11:40:44.242Z,27.78
2019-05-29T11:43:15.396Z,26.62
2019-05-29T11:45:45.427Z,26.45
2019-05-29T11:48:15.710Z,25.17
2019-05-29T11:50:46.446Z,25.19
2019-05-29T11:53:16.475Z,26.50
2019-05-29T11:55:46.709Z,27.68
2019-05-29T11:58:30.537Z,28.09
2019-05-29T12:00:50.740Z,27.87
2019-05-29T12:03:21.186Z,27.75
2019-05-29T12:05:51.750Z,28.46
2019-05-29T12:08:22.242Z,28.82
2019-05-29T12:10:53.251Z,28.80
2019-05-29T12:13:23.591Z,28.64
2019-05-29T12:15:53.812Z,29.07
2019-05-29T12:18:24.932Z,28.83
2019-05-29T12:20:56.148Z,27.64
2019-05-29T12:23:27.227Z,26.59
2019-05-29T12:26:18.788Z,26.04
2019-05-29T12:28:31.563Z,26.48
2019-05-29T12:31:03.025Z,27.58
2019-05-29T12:33:33.736Z,26.41
2019-05-29T12:36:04.179Z,25.21
2019-05-29T12:38:34.286Z,25.64
2019-05-29T12:41:04.444Z,26.85
2019-05-29T12:43:34.759Z,28.05
2019-05-29T12:46:05.298Z,28.24
2019-05-29T12:48:35.738Z,28.32
2019-05-29T12:51:07.194Z,26.39
2019-05-29T12:53:37.718Z,25.54
2019-05-29T12:56:07.824Z,25.04
2019-05-29T12:58:37.954Z,23.49
2019-05-29T13:01:08.114Z,22.95
2019-05-29T13:03:38.331Z,22.67
2019-05-29T13:06:08.455Z,23.21
2019-05-29T13:08:38.617Z,24.76
2019-05-29T13:11:08.802Z,26.83
2019-05-29T13:13:39.346Z,27.80
2019-05-29T13:16:09.458Z,27.39
2019-05-29T13:18:45.323Z,27.37
2019-05-29T13:21:15.456Z,26.04
2019-05-29T13:23:45.995Z,25.80
2019-05-29T13:26:16.484Z,24.23
2019-05-29T13:28:47.370Z,25.33
2019-05-29T13:31:17.437Z,25.04
2019-05-29T13:33:47.574Z,24.36
2019-05-29T13:36:18.643Z,22.78
2019-05-29T13:38:48.765Z,23.00
2019-05-29T13:41:19.445Z,24.11
2019-05-29T13:43:49.607Z,25.44
2019-05-29T13:46:19.648Z,25.86
2019-05-29T13:48:50.201Z,26.49
2019-05-29T13:51:21.426Z,26.98
2019-05-29T13:54:04.806Z,27.11
2019-05-29T13:56:25.877Z,26.75
2019-05-29T13:58:55.941Z,26.71
2019-05-29T14:01:26.121Z,27.70
2019-05-29T14:03:56.368Z,28.26
2019-05-29T14:06:26.764Z,27.84
2019-05-29T14:08:56.916Z,27.72
2019-05-29T14:11:27.643Z,27.60
2019-05-29T14:13:59.112Z,26.11
2019-05-29T14:16:29.339Z,25.21
2019-05-29T14:19:00.728Z,24.26
2019-05-29T14:21:31.409Z,24.05
2019-05-29T14:24:02.843Z,23.12
2019-05-29T14:26:34.357Z,23.27
2019-05-29T14:29:05.989Z,23.55
2019-05-29T14:31:36.440Z,23.88
2019-05-29T14:34:07.505Z,24.91
2019-05-29T14:36:38.825Z,24.54
2019-05-29T14:39:10.010Z,25.18
2019-05-29T14:41:40.322Z,24.15
2019-05-29T14:44:10.545Z,23.59
2019-05-29T14:46:40.779Z,23.70
2019-05-29T14:49:13.817Z,23.70
2019-05-29T14:51:44.096Z,23.62
2019-05-29T14:54:14.343Z,23.75
2019-05-29T14:56:44.432Z,23.27
2019-05-29T14:59:14.517Z,23.17
2019-05-29T15:01:45.778Z,23.42
2019-05-29T15:04:15.879Z,24.45
2019-05-29T15:06:46.047Z,24.64
2019-05-29T15:09:17.359Z,25.25
2019-05-29T15:11:47.479Z,25.03
2019-05-29T15:14:17.536Z,24.10
2019-05-29T15:16:48.307Z,23.75
2019-05-29T15:19:18.487Z,23.56
2019-05-29T15:21:51.008Z,23.08
2019-05-29T15:24:21.307Z,22.65
2019-05-29T15:26:51.382Z,22.18
2019-05-29T15:29:21.426Z,22.54
2019-05-29T15:31:54.916Z,22.40
2019-05-29T15:34:25.430Z,22.62
2019-05-29T15:36:55.618Z,22.91
2019-05-29T15:39:25.732Z,22.67
2019-05-29T15:41:55.825Z,22.74
2019-05-29T15:44:26.102Z,23.15
2019-05-29T15:46:57.309Z,23.47
2019-05-29T15:49:27.534Z,23.19
2019-05-29T15:51:57.939Z,22.83
2019-05-29T15:54:28.052Z,22.33
2019-05-29T15:56:58.612Z,22.55
2019-05-29T15:59:29.647Z,22.63
2019-05-29T16:01:59.833Z,22.71
2019-05-29T16:04:30.012Z,23.38
2019-05-29T16:07:00.198Z,23.38
2019-05-29T16:09:30.496Z,23.89
2019-05-29T16:12:00.657Z,23.98
2019-05-29T16:14:30.903Z,23.71
2019-05-29T16:17:01.459Z,23.71
2019-05-29T16:19:31.732Z,23.79
2019-05-29T16:22:02.059Z,23.83
2019-05-29T16:24:32.955Z,24.03
2019-05-29T16:27:08.895Z,24.13
2019-05-29T16:29:35.243Z,24.25
2019-05-29T16:32:11.531Z,24.23
2019-05-29T16:34:45.403Z,24.37
2019-05-29T16:37:17.785Z,24.05
2019-05-29T16:39:47.891Z,23.65
2019-05-29T16:42:18.116Z,23.55
2019-05-29T16:44:48.721Z,24.17
2019-05-29T16:47:20.527Z,24.11
2019-05-29T16:49:50.803Z,23.96
2019-05-29T16:52:21.215Z,24.46
2019-05-29T16:54:51.361Z,24.30
2019-05-29T16:57:21.508Z,24.18
2019-05-29T16:59:51.726Z,24.63
2019-05-29T17:02:22.205Z,25.27
2019-05-29T17:04:53.187Z,25.43
2019-05-29T17:07:24.378Z,24.18
2019-05-29T17:09:54.604Z,24.30
2019-05-29T17:12:26.140Z,24.60
2019-05-29T17:14:56.773Z,25.20
2019-05-29T17:17:30.297Z,26.07
2019-05-29T17:19:58.861Z,27.15
2019-05-29T17:22:30.306Z,27.92
2019-05-29T17:25:00.882Z,29.29
2019-05-29T17:27:31.188Z,29.45
2019-05-29T17:30:02.920Z,29.90
2019-05-29T17:32:33.100Z,30.34
2019-05-29T17:35:03.236Z,30.69
2019-05-29T17:37:40.324Z,30.64
2019-05-29T17:40:10.738Z,30.87
2019-05-29T17:42:42.523Z,31.24
2019-05-29T17:45:14.311Z,31.20
2019-05-29T17:47:45.694Z,31.09
2019-05-29T17:50:19.127Z,30.00
2019-05-29T17:52:48.903Z,29.50
2019-05-29T17:55:24.948Z,28.79
2019-05-29T17:58:03.026Z,28.26
2019-05-29T18:00:34.150Z,27.97
2019-05-29T18:03:05.121Z,27.30
2019-05-29T18:05:36.863Z,26.45
2019-05-29T18:08:07.169Z,26.25
2019-05-29T18:10:37.514Z,25.67
2019-05-29T18:13:08.125Z,25.89
2019-05-29T18:15:43.320Z,25.79
2019-05-29T18:18:14.891Z,25.70
2019-05-29T18:20:45.862Z,26.06
2019-05-29T18:23:17.516Z,26.06
2019-05-29T18:25:48.067Z,26.43
2019-05-29T18:28:18.346Z,26.69
2019-05-29T18:30:48.795Z,27.16
2019-05-29T18:33:18.995Z,27.71
2019-05-29T18:36:00.656Z,28.20
2019-05-29T18:38:30.942Z,28.15
2019-05-29T18:41:05.925Z,28.48
2019-05-29T18:43:40.282Z,28.42
2019-05-29T18:46:13.829Z,28.76
2019-05-29T18:48:46.867Z,29.04
2019-05-29T18:51:18.752Z,29.37
2019-05-29T18:53:49.209Z,29.62
2019-05-29T18:56:19.446Z,29.75
2019-05-29T18:58:50.004Z,30.04
2019-05-29T19:01:21.515Z,29.33
2019-05-29T19:03:54.167Z,30.01
2019-05-29T19:06:25.615Z,30.78
2019-05-29T19:08:56.526Z,31.29
2019-05-29T19:11:28.044Z,32.10
2019-05-29T19:13:58.403Z,32.70
2019-05-29T19:16:50.124Z,33.43
2019-05-29T19:19:20.262Z,32.85
2019-05-29T19:21:50.903Z,34.04
2019-05-29T19:24:31.000Z,34.88
2019-05-29T19:27:01.428Z,35.31
2019-05-29T19:29:33.138Z,34.82
2019-05-29T19:32:03.960Z,34.89
2019-05-29T19:34:34.027Z,36.08
2019-05-29T19:37:04.531Z,36.38
2019-05-29T19:39:35.050Z,35.78
2019-05-29T19:42:05.420Z,35.48
2019-05-29T19:44:35.483Z,36.10
2019-05-29T19:47:06.645Z,36.18
2019-05-29T19:49:37.747Z,36.10
2019-05-29T19:52:09.566Z,36.55
2019-05-29T19:54:39.916Z,36.67
2019-05-29T19:57:10.019Z,36.99
2019-05-29T19:59:40.753Z,37.22
2019-05-29T20:02:10.877Z,37.12
2019-05-29T20:04:40.973Z,37.18
2019-05-29T20:07:12.622Z,37.62
2019-05-29T20:09:42.901Z,37.57
2019-05-29T20:12:13.048Z,37.80
2019-05-29T20:14:43.110Z,38.05
2019-05-29T20:17:14.343Z,38.21
2019-05-29T20:19:44.478Z,38.49
2019-05-29T20:22:15.213Z,38.68
2019-05-29T20:24:45.690Z,39.01
2019-05-29T20:27:15.936Z,38.93
2019-05-29T20:29:45.986Z,39.34
2019-05-29T20:32:17.131Z,39.46
2019-05-29T20:34:48.275Z,39.76
2019-05-29T20:37:18.749Z,39.79
2019-05-29T20:39:49.311Z,39.63
2019-05-29T20:42:19.458Z,39.63
2019-05-29T20:44:49.622Z,40.00
2019-05-29T20:47:20.643Z,40.14
2019-05-29T20:49:51.942Z,40.70
2019-05-29T20:52:24.905Z,40.70
2019-05-29T20:54:58.455Z,41.36
2019-05-29T20:57:31.764Z,40.64
2019-05-29T21:00:04.764Z,41.02
2019-05-29T21:02:38.170Z,41.02
2019-05-29T21:05:11.831Z,40.51
2019-05-29T21:07:43.483Z,41.35
2019-05-29T21:10:16.461Z,41.69
2019-05-29T21:12:47.906Z,42.13
2019-05-29T21:15:18.633Z,42.00
2019-05-29T21:17:48.669Z,42.00
2019-05-29T21:20:19.243Z,42.26
2019-05-29T21:22:49.710Z,42.26
2019-05-29T21:25:19.793Z,43.06
2019-05-29T21:27:49.878Z,43.05
2019-05-29T21:30:24.136Z,43.46
2019-05-29T21:32:54.200Z,43.37
2019-05-29T21:35:24.721Z,43.96
2019-05-29T21:37:55.330Z,44.35
2019-05-29T21:40:25.360Z,44.61
2019-05-29T21:42:55.404Z,44.51
2019-05-29T21:45:25.609Z,44.70
2019-05-29T21:47:56.019Z,44.90
2019-05-29T21:50:26.102Z,44.93
2019-05-29T21:52:57.044Z,45.16
2019-05-29T21:55:27.192Z,45.23
2019-05-29T21:57:57.296Z,45.61
2019-05-29T22:00:38.101Z,46.08
2019-05-29T22:03:09.410Z,46.34
2019-05-29T22:05:40.549Z,46.87
2019-05-29T22:08:10.630Z,47.15
2019-05-29T22:10:41.549Z,47.41
2019-05-29T22:13:11.669Z,47.62
2019-05-29T22:15:41.762Z,47.89
2019-05-29T22:18:12.122Z,47.99
2019-05-29T22:20:42.309Z,48.44
2019-05-29T22:23:12.429Z,48.86
2019-05-29T22:25:42.584Z,49.24
2019-05-29T22:28:13.215Z,49.33
2019-05-29T22:30:43.821Z,49.65
2019-05-29T22:33:14.535Z,49.85
2019-05-29T22:35:44.600Z,49.79
2019-05-29T22:38:15.175Z,49.92
2019-05-29T22:40:45.242Z,49.78
2019-05-29T22:43:21.872Z,49.99
2019-05-29T22:45:53.504Z,50.04
2019-05-29T22:48:23.671Z,49.80
2019-05-29T22:50:54.173Z,50.09
2019-05-29T22:53:24.336Z,50.15
2019-05-29T22:55:55.694Z,50.12
2019-05-29T22:58:26.072Z,50.10
2019-05-29T23:00:58.022Z,49.91
2019-05-29T23:03:28.061Z,49.89
2019-05-29T23:05:58.628Z,49.95
2019-05-29T23:08:31.218Z,50.11
2019-05-29T23:11:03.001Z,49.73
2019-05-29T23:13:33.708Z,49.59
2019-05-29T23:16:03.748Z,49.44
2019-05-29T23:18:34.280Z,48.93
2019-05-29T23:21:04.422Z,48.61
2019-05-29T23:23:34.465Z,48.45
2019-05-29T23:26:04.501Z,48.36
2019-05-29T23:28:43.223Z,48.15
2019-05-29T23:31:13.282Z,47.52
2019-05-29T23:33:43.832Z,47.51
2019-05-29T23:36:14.128Z,47.42
2019-05-29T23:38:44.338Z,46.66
2019-05-29T23:41:14.784Z,46.74
2019-05-29T23:43:44.878Z,46.61
2019-05-29T23:46:19.327Z,46.15
2019-05-29T23:48:49.524Z,46.17
2019-05-29T23:51:19.747Z,45.84
2019-05-29T23:53:50.648Z,45.76
2019-05-29T23:56:20.736Z,45.62
2019-05-29T23:58:50.722Z,45.51
